Time;durP1;ratioP1;P1;durP2;ratioP2;P2;SDS_P1;SDS_P2;PMS_P1;PMS_P2;Temp;Humidity;BMP_temperature;BMP_pressure;BME280_temperature;BME280_humidity;BME280_pressure;Samples;Min_cycle;Max_cycle;Signal;HPM_P1;HPM_P2
2022/03/28 00:02:03;;;;;;;24.15;13.57;;;;;;;;;;6179754;23;20052;-50
2022/03/28 00:04:29;;;;;;;27.05;13.85;;;;;;;;;;6178055;23;20421;-52
2022/03/28 00:06:54;;;;;;;24.70;14.50;;;;;;;;;;6180200;23;20024;-52
2022/03/28 00:09:19;;;;;;;26.75;15.15;;;;;;;;;;6176127;23;20283;-52
2022/03/28 00:11:45;;;;;;;26.60;14.52;;;;;;;;;;6179031;23;20019;-52
2022/03/28 00:14:10;;;;;;;28.83;14.40;;;;;;;;;;6177434;23;20017;-48
2022/03/28 00:16:36;;;;;;;27.27;15.02;;;;;;;;;;6179140;23;20024;-53
2022/03/28 00:19:01;;;;;;;30.52;16.45;;;;;;;;;;6177238;23;20013;-51
2022/03/28 00:21:26;;;;;;;41.90;18.65;;;;;;;;;;6177929;23;20016;-54
2022/03/28 00:23:52;;;;;;;33.13;18.02;;;;;;;;;;6178902;23;20028;-50
2022/03/28 00:26:17;;;;;;;43.92;19.33;;;;;;;;;;6176378;23;20020;-54
2022/03/28 00:28:43;;;;;;;38.83;21.20;;;;;;;;;;6178539;23;20005;-51
2022/03/28 00:31:08;;;;;;;49.55;22.98;;;;;;;;;;6178087;23;20234;-54
2022/03/28 00:33:34;;;;;;;56.90;25.23;;;;;;;;;;6177039;23;20534;-50
2022/03/28 00:35:59;;;;;;;56.10;24.95;;;;;;;;;;6177294;23;20048;-51
2022/03/28 00:38:24;;;;;;;78.78;25.52;;;;;;;;;;6176604;23;20024;-51
2022/03/28 00:40:49;;;;;;;119.25;26.67;;;;;;;;;;6179204;23;20024;-53
2022/03/28 00:43:15;;;;;;;102.20;26.60;;;;;;;;;;6178746;23;20035;-50
2022/03/28 00:45:41;;;;;;;94.35;26.60;;;;;;;;;;6177372;23;20008;-51
2022/03/28 00:48:08;;;;;;;89.82;27.77;;;;;;;;;;6176966;23;20017;-52
2022/03/28 00:50:34;;;;;;;134.50;26.70;;;;;;;;;;6174362;23;20035;-54
2022/03/28 00:52:59;;;;;;;103.10;28.13;;;;;;;;;;6178334;23;20131;-50
2022/03/28 00:55:25;;;;;;;90.45;26.13;;;;;;;;;;6175329;23;20017;-54
2022/03/28 00:57:50;;;;;;;94.88;24.92;;;;;;;;;;6177259;23;20005;-53
2022/03/28 01:00:16;;;;;;;102.07;25.88;;;;;;;;;;6152135;23;20048;-51
2022/03/28 01:02:41;;;;;;;100.05;25.58;;;;;;;;;;6178679;23;20009;-53
2022/03/28 01:05:07;;;;;;;64.50;23.10;;;;;;;;;;6178915;23;20316;-53
2022/03/28 01:07:32;;;;;;;85.32;27.27;;;;;;;;;;6176255;23;20048;-52
2022/03/28 01:10:00;;;;;;;55.97;25.20;;;;;;;;;;6177742;23;20065;-55
2022/03/28 01:12:26;;;;;;;69.15;24.65;;;;;;;;;;6176222;23;20013;-50
2022/03/28 01:14:52;;;;;;;99.30;28.05;;;;;;;;;;6178171;23;20075;-51
2022/03/28 01:20:01;;;;;;;71.65;25.27;;;;;;;;;;6174197;23;20097;-53
2022/03/28 01:22:26;;;;;;;82.43;25.23;;;;;;;;;;6175255;23;20009;-55
2022/03/28 01:24:52;;;;;;;85.30;26.77;;;;;;;;;;6178413;23;20017;-49
2022/03/28 01:27:19;;;;;;;88.28;28.58;;;;;;;;;;6147308;23;20166;-50
2022/03/28 01:29:44;;;;;;;102.13;26.80;;;;;;;;;;6177693;23;20013;-51
2022/03/28 01:32:10;;;;;;;91.40;23.10;;;;;;;;;;6177357;23;20024;-53
2022/03/28 01:34:35;;;;;;;86.50;22.45;;;;;;;;;;6177147;23;20017;-51
2022/03/28 01:37:01;;;;;;;53.38;21.08;;;;;;;;;;6150791;23;20017;-51
2022/03/28 01:39:26;;;;;;;49.20;18.48;;;;;;;;;;6176290;23;20013;-53
2022/03/28 01:41:52;;;;;;;37.80;19.33;;;;;;;;;;6178350;23;20013;-51
2022/03/28 01:44:17;;;;;;;45.75;18.85;;;;;;;;;;6177225;23;20020;-50
2022/03/28 01:46:47;;;;;;;47.92;22.38;;;;;;;;;;6177109;23;20076;-49
2022/03/28 01:49:13;;;;;;;47.03;17.35;;;;;;;;;;6176099;23;20018;-54
2022/03/28 01:51:41;;;;;;;41.63;17.77;;;;;;;;;;6177746;23;20032;-52
2022/03/28 01:54:06;;;;;;;38.88;17.00;;;;;;;;;;6177394;23;20013;-52
2022/03/28 01:56:33;;;;;;;31.65;15.60;;;;;;;;;;6175874;23;20893;-52
2022/03/28 01:58:58;;;;;;;25.25;14.30;;;;;;;;;;6177963;23;20013;-53
2022/03/28 02:01:23;;;;;;;20.52;11.55;;;;;;;;;;6176993;23;20037;-48
2022/03/28 02:03:49;;;;;;;19.48;11.73;;;;;;;;;;6178049;23;20013;-52
2022/03/28 02:06:14;;;;;;;20.33;10.73;;;;;;;;;;6176174;23;20005;-50
2022/03/28 02:08:39;;;;;;;19.70;11.52;;;;;;;;;;6178403;23;20037;-50
2022/03/28 02:11:04;;;;;;;16.85;10.20;;;;;;;;;;6177248;23;20391;-51
2022/03/28 02:13:30;;;;;;;15.80;9.57;;;;;;;;;;6176504;23;20032;-50
2022/03/28 02:15:55;;;;;;;13.75;9.18;;;;;;;;;;6176983;23;20614;-54
2022/03/28 02:18:20;;;;;;;11.48;8.15;;;;;;;;;;6175886;23;20020;-51
2022/03/28 02:20:45;;;;;;;14.18;8.50;;;;;;;;;;6174853;23;20017;-51
2022/03/28 02:23:11;;;;;;;12.23;8.00;;;;;;;;;;6176716;23;20068;-52
2022/03/28 02:25:38;;;;;;;14.30;9.38;;;;;;;;;;6177262;23;20020;-50
2022/03/28 02:28:04;;;;;;;12.52;8.85;;;;;;;;;;6178140;23;20020;-50
2022/03/28 02:30:30;;;;;;;15.88;10.32;;;;;;;;;;6175267;23;20092;-51
2022/03/28 02:32:55;;;;;;;17.52;10.48;;;;;;;;;;6177980;23;20048;-49
2022/03/28 02:35:20;;;;;;;16.33;10.90;;;;;;;;;;6175861;23;20024;-49
2022/03/28 02:37:47;;;;;;;16.92;9.90;;;;;;;;;;6178250;23;20009;-51
2022/03/28 02:40:12;;;;;;;17.20;10.80;;;;;;;;;;6176127;23;20493;-51
2022/03/28 02:42:38;;;;;;;13.68;9.13;;;;;;;;;;6176356;23;20522;-50
2022/03/28 02:45:03;;;;;;;15.95;9.82;;;;;;;;;;6175503;23;20017;-51
2022/03/28 02:47:29;;;;;;;15.98;9.50;;;;;;;;;;6175627;23;20009;-53
2022/03/28 02:49:54;;;;;;;15.98;10.05;;;;;;;;;;6178380;23;20029;-53
2022/03/28 02:52:21;;;;;;;14.10;9.20;;;;;;;;;;6171299;23;20036;-51
2022/03/28 02:54:46;;;;;;;15.60;10.07;;;;;;;;;;6176999;23;20024;-50
2022/03/28 02:57:11;;;;;;;14.13;10.18;;;;;;;;;;6174725;23;20080;-53
2022/03/28 02:59:37;;;;;;;15.57;9.30;;;;;;;;;;6177113;23;20404;-50
2022/03/28 03:02:02;;;;;;;13.32;9.05;;;;;;;;;;6176272;23;20345;-52
2022/03/28 03:04:27;;;;;;;14.95;9.95;;;;;;;;;;6176045;23;20009;-49
2022/03/28 03:06:53;;;;;;;15.38;10.50;;;;;;;;;;6178203;23;20842;-52
2022/03/28 03:09:18;;;;;;;17.45;10.73;;;;;;;;;;6177077;23;20017;-51
2022/03/28 03:11:44;;;;;;;14.45;9.93;;;;;;;;;;6177856;23;20023;-51
2022/03/28 03:14:09;;;;;;;14.98;10.02;;;;;;;;;;6178483;23;20032;-49
2022/03/28 03:16:34;;;;;;;14.95;10.07;;;;;;;;;;6178863;23;20013;-48
2022/03/28 03:18:59;;;;;;;14.93;9.68;;;;;;;;;;6176581;23;20044;-53
2022/03/28 03:21:24;;;;;;;16.48;10.68;;;;;;;;;;6172439;23;20008;-52
2022/03/28 03:23:50;;;;;;;14.75;9.18;;;;;;;;;;6178896;23;20028;-50
2022/03/28 03:26:15;;;;;;;12.65;8.55;;;;;;;;;;6171000;23;20084;-48
2022/03/28 03:28:40;;;;;;;15.73;9.10;;;;;;;;;;6178209;23;20478;-51
2022/03/28 03:31:06;;;;;;;17.00;10.68;;;;;;;;;;6178064;23;20016;-50
2022/03/28 03:33:32;;;;;;;13.10;9.20;;;;;;;;;;6177803;23;20110;-49
2022/03/28 03:36:00;;;;;;;14.88;9.70;;;;;;;;;;6177655;23;20044;-47
2022/03/28 03:38:25;;;;;;;15.52;9.77;;;;;;;;;;6179155;23;20009;-49
2022/03/28 03:40:50;;;;;;;13.73;9.82;;;;;;;;;;6176710;23;20079;-48
2022/03/28 03:43:16;;;;;;;18.20;11.15;;;;;;;;;;6177143;23;20087;-52
2022/03/28 03:45:41;;;;;;;16.25;10.40;;;;;;;;;;6178578;23;20083;-53
2022/03/28 03:48:06;;;;;;;14.68;10.90;;;;;;;;;;6177897;23;20040;-50
2022/03/28 03:50:32;;;;;;;19.52;10.63;;;;;;;;;;6177520;23;20041;-48
2022/03/28 03:52:57;;;;;;;15.20;10.00;;;;;;;;;;6177610;23;20029;-49
2022/03/28 03:55:22;;;;;;;20.52;11.40;;;;;;;;;;6177783;23;20017;-51
2022/03/28 03:57:48;;;;;;;19.83;11.77;;;;;;;;;;6178140;23;20013;-50
2022/03/28 04:00:13;;;;;;;17.70;11.73;;;;;;;;;;6178831;23;20094;-51
2022/03/28 04:02:39;;;;;;;26.67;13.60;;;;;;;;;;6177168;23;20009;-49
2022/03/28 04:05:04;;;;;;;22.27;12.50;;;;;;;;;;6179278;23;20400;-54
2022/03/28 04:07:30;;;;;;;21.77;13.20;;;;;;;;;;6176732;23;20025;-51
2022/03/28 04:09:58;;;;;;;21.58;11.73;;;;;;;;;;6177496;23;20123;-52
2022/03/28 04:12:23;;;;;;;18.98;12.77;;;;;;;;;;6176818;23;20021;-48
2022/03/28 04:14:48;;;;;;;19.55;12.15;;;;;;;;;;6179136;23;20024;-49
2022/03/28 04:17:14;;;;;;;21.90;13.68;;;;;;;;;;6176219;23;20028;-49
2022/03/28 04:19:39;;;;;;;30.75;13.63;;;;;;;;;;6178888;23;20013;-53
2022/03/28 04:22:05;;;;;;;38.88;14.73;;;;;;;;;;6177842;23;20116;-49
2022/03/28 04:24:30;;;;;;;41.13;14.73;;;;;;;;;;6178558;23;20061;-50
2022/03/28 04:26:55;;;;;;;41.08;15.77;;;;;;;;;;6175391;23;20044;-50
2022/03/28 04:29:20;;;;;;;58.22;16.60;;;;;;;;;;6178266;23;20017;-53
2022/03/28 04:31:46;;;;;;;55.35;17.73;;;;;;;;;;6178247;23;20017;-49
2022/03/28 04:34:11;;;;;;;56.20;18.55;;;;;;;;;;6178527;23;20025;-50
2022/03/28 04:36:38;;;;;;;56.92;18.85;;;;;;;;;;6176431;23;20107;-51
2022/03/28 04:39:04;;;;;;;93.28;18.50;;;;;;;;;;6178024;23;20092;-49
2022/03/28 04:41:30;;;;;;;74.70;21.92;;;;;;;;;;6176683;23;20073;-54
2022/03/28 04:43:55;;;;;;;49.75;20.42;;;;;;;;;;6179007;23;20144;-48
2022/03/28 04:46:21;;;;;;;53.63;19.40;;;;;;;;;;6175844;23;20021;-51
2022/03/28 04:48:47;;;;;;;46.80;19.10;;;;;;;;;;6179507;23;20013;-51
2022/03/28 04:51:12;;;;;;;56.83;19.25;;;;;;;;;;6174119;23;20101;-52
2022/03/28 04:53:37;;;;;;;60.60;19.23;;;;;;;;;;6178720;23;20024;-52
2022/03/28 04:56:03;;;;;;;47.22;18.88;;;;;;;;;;6177585;23;20013;-50
2022/03/28 04:58:28;;;;;;;56.90;20.27;;;;;;;;;;6178728;23;20072;-50
2022/03/28 05:00:53;;;;;;;41.47;20.13;;;;;;;;;;6176593;23;20020;-49
2022/03/28 05:03:19;;;;;;;55.05;19.73;;;;;;;;;;6178078;23;20021;-51
2022/03/28 05:05:45;;;;;;;59.95;20.15;;;;;;;;;;6177706;23;20013;-51
2022/03/28 05:08:10;;;;;;;46.85;18.08;;;;;;;;;;6179662;23;20039;-51
2022/03/28 05:10:36;;;;;;;65.60;21.02;;;;;;;;;;6176249;23;20060;-49
2022/03/28 05:13:01;;;;;;;55.75;19.38;;;;;;;;;;6178743;23;20510;-51
2022/03/28 05:15:27;;;;;;;72.55;20.33;;;;;;;;;;6176557;23;20065;-53
2022/03/28 05:17:52;;;;;;;67.38;20.65;;;;;;;;;;6177958;23;20017;-49
2022/03/28 05:20:18;;;;;;;61.47;22.08;;;;;;;;;;6176289;23;20024;-49
2022/03/28 05:22:43;;;;;;;60.13;20.05;;;;;;;;;;6179095;23;20040;-52
2022/03/28 05:25:08;;;;;;;69.13;23.20;;;;;;;;;;6177782;23;20013;-49
2022/03/28 05:27:40;;;;;;;55.00;20.42;;;;;;;;;;6178336;23;20112;-52
2022/03/28 05:30:06;;;;;;;58.17;22.02;;;;;;;;;;6178474;23;20017;-49
2022/03/28 05:32:31;;;;;;;62.05;22.13;;;;;;;;;;6177869;23;20075;-53
2022/03/28 05:34:56;;;;;;;56.28;21.23;;;;;;;;;;6176857;23;20762;-51
2022/03/28 05:37:22;;;;;;;58.40;23.45;;;;;;;;;;6177680;23;20009;-50
2022/03/28 05:39:48;;;;;;;42.78;21.13;;;;;;;;;;6175861;23;20013;-51
2022/03/28 05:42:14;;;;;;;39.50;20.38;;;;;;;;;;6177738;23;20116;-49
2022/03/28 05:44:40;;;;;;;39.10;22.13;;;;;;;;;;6176231;23;20019;-49
2022/03/28 05:47:05;;;;;;;40.88;21.08;;;;;;;;;;6176943;23;20502;-52
2022/03/28 05:49:31;;;;;;;43.47;21.58;;;;;;;;;;6175522;23;20025;-50
2022/03/28 05:51:56;;;;;;;43.90;20.58;;;;;;;;;;6177868;23;20029;-52
2022/03/28 05:54:22;;;;;;;70.05;21.08;;;;;;;;;;6148358;23;20073;-50
2022/03/28 05:56:48;;;;;;;68.28;21.38;;;;;;;;;;6178656;23;20016;-53
2022/03/28 05:59:13;;;;;;;58.08;23.17;;;;;;;;;;6170212;23;20032;-52
2022/03/28 06:01:38;;;;;;;71.63;21.63;;;;;;;;;;6169945;23;20021;-53
2022/03/28 06:04:04;;;;;;;75.20;20.95;;;;;;;;;;6170451;23;20020;-49
2022/03/28 06:06:30;;;;;;;73.43;22.67;;;;;;;;;;6168564;23;20040;-53
2022/03/28 06:08:56;;;;;;;103.25;25.33;;;;;;;;;;6170320;23;20020;-50
2022/03/28 06:11:22;;;;;;;82.63;23.02;;;;;;;;;;6172673;23;20013;-54
2022/03/28 06:13:47;;;;;;;95.53;23.33;;;;;;;;;;6166280;23;20032;-50
2022/03/28 06:16:12;;;;;;;81.63;24.27;;;;;;;;;;6159849;23;20395;-51
2022/03/28 06:18:37;;;;;;;103.70;28.38;;;;;;;;;;6177394;23;20024;-49
2022/03/28 06:21:03;;;;;;;213.82;38.95;;;;;;;;;;6174873;23;20028;-48
2022/03/28 06:23:28;;;;;;;96.50;28.17;;;;;;;;;;6177925;23;20024;-49
2022/03/28 06:25:53;;;;;;;89.38;30.55;;;;;;;;;;6175600;23;20017;-50
2022/03/28 06:28:19;;;;;;;89.30;30.10;;;;;;;;;;6177495;23;20009;-48
2022/03/28 06:30:44;;;;;;;95.53;28.45;;;;;;;;;;6174126;23;20366;-48
2022/03/28 06:33:10;;;;;;;65.32;26.58;;;;;;;;;;6177782;23;20024;-52
2022/03/28 06:35:35;;;;;;;52.80;25.20;;;;;;;;;;6179176;23;20023;-52
2022/03/28 06:38:01;;;;;;;69.55;27.25;;;;;;;;;;6174119;23;20041;-51
2022/03/28 06:40:27;;;;;;;52.40;24.20;;;;;;;;;;6173005;23;20043;-53
2022/03/28 06:42:53;;;;;;;85.20;27.63;;;;;;;;;;6173713;23;20021;-49
2022/03/28 06:45:18;;;;;;;61.28;24.20;;;;;;;;;;6173287;23;20020;-52
2022/03/28 06:47:44;;;;;;;56.72;24.05;;;;;;;;;;6172787;23;20020;-50
2022/03/28 06:50:10;;;;;;;51.28;24.63;;;;;;;;;;6171680;23;20064;-49
2022/03/28 06:52:35;;;;;;;70.82;26.92;;;;;;;;;;6172542;23;20017;-48
2022/03/28 06:55:01;;;;;;;54.25;24.30;;;;;;;;;;6172930;23;20083;-55
2022/03/28 06:57:26;;;;;;;79.93;30.58;;;;;;;;;;6173269;23;20040;-52
2022/03/28 06:59:53;;;;;;;114.55;30.80;;;;;;;;;;6174086;23;20021;-51
2022/03/28 07:02:18;;;;;;;101.65;28.98;;;;;;;;;;6172408;23;20017;-51
2022/03/28 07:04:44;;;;;;;87.85;28.67;;;;;;;;;;6161855;23;20827;-50
2022/03/28 07:07:10;;;;;;;87.82;29.70;;;;;;;;;;6146177;23;20017;-50
2022/03/28 07:09:35;;;;;;;79.03;27.67;;;;;;;;;;6178956;23;20262;-54
2022/03/28 07:12:02;;;;;;;86.35;31.23;;;;;;;;;;6178752;23;20032;-50
2022/03/28 07:14:28;;;;;;;86.30;29.55;;;;;;;;;;6180948;23;20083;-52
2022/03/28 07:16:53;;;;;;;80.75;31.75;;;;;;;;;;6178970;23;20016;-53
2022/03/28 07:19:18;;;;;;;92.45;31.55;;;;;;;;;;6153007;23;20013;-50
2022/03/28 07:21:44;;;;;;;102.78;33.67;;;;;;;;;;6178909;23;20013;-54
2022/03/28 07:24:09;;;;;;;104.35;34.88;;;;;;;;;;6179856;23;20013;-52
2022/03/28 07:26:35;;;;;;;106.63;35.70;;;;;;;;;;6177579;23;20044;-53
2022/03/28 07:29:02;;;;;;;90.53;36.50;;;;;;;;;;6179217;23;20021;-52
2022/03/28 07:31:27;;;;;;;90.90;33.80;;;;;;;;;;6178285;23;20013;-51
2022/03/28 07:34:29;;;;;;;104.95;35.88;;;;;;;;;;6174807;23;20031;-50
2022/03/28 07:36:38;;;;;;;92.97;34.83;;;;;;;;;;6175910;23;20048;-52
2022/03/28 07:39:03;;;;;;;135.77;38.25;;;;;;;;;;6175149;23;20017;-50
2022/03/28 07:41:29;;;;;;;103.70;38.83;;;;;;;;;;6178224;23;20013;-53
2022/03/28 07:43:54;;;;;;;80.55;34.42;;;;;;;;;;6177884;23;20017;-53
2022/03/28 07:46:21;;;;;;;94.32;34.78;;;;;;;;;;6179376;23;20071;-51
2022/03/28 07:48:46;;;;;;;100.00;36.45;;;;;;;;;;6169206;23;20013;-53
2022/03/28 07:51:11;;;;;;;103.80;37.92;;;;;;;;;;6174950;23;20025;-54
2022/03/28 07:53:38;;;;;;;95.68;34.00;;;;;;;;;;6173331;23;20132;-50
2022/03/28 07:56:03;;;;;;;94.35;35.97;;;;;;;;;;6175169;23;20009;-53
2022/03/28 07:58:29;;;;;;;94.47;35.70;;;;;;;;;;6172865;23;20081;-53
2022/03/28 08:00:55;;;;;;;102.95;37.67;;;;;;;;;;6174851;23;20924;-52
2022/03/28 08:03:20;;;;;;;132.35;40.13;;;;;;;;;;6172846;23;20021;-54
2022/03/28 08:05:46;;;;;;;106.72;39.72;;;;;;;;;;6176120;23;20009;-54
2022/03/28 08:08:12;;;;;;;110.68;39.42;;;;;;;;;;6170649;23;20032;-53
2022/03/28 08:10:37;;;;;;;106.78;39.92;;;;;;;;;;6169699;23;20017;-49
2022/03/28 08:13:02;;;;;;;95.70;37.78;;;;;;;;;;6170464;23;20021;-53
2022/03/28 08:15:27;;;;;;;98.85;38.55;;;;;;;;;;6174373;23;20463;-51
2022/03/28 08:17:56;;;;;;;104.07;38.40;;;;;;;;;;6171248;23;20013;-51
2022/03/28 08:20:22;;;;;;;89.77;39.47;;;;;;;;;;6169852;23;20017;-52
2022/03/28 08:22:49;;;;;;;92.28;40.88;;;;;;;;;;6176682;23;20231;-51
2022/03/28 08:25:15;;;;;;;95.82;37.55;;;;;;;;;;6178568;23;20013;-52
2022/03/28 08:27:41;;;;;;;92.18;41.08;;;;;;;;;;6174972;23;20024;-54
2022/03/28 08:30:06;;;;;;;90.90;37.83;;;;;;;;;;6178329;23;20013;-52
2022/03/28 08:32:33;;;;;;;77.05;35.25;;;;;;;;;;6177754;23;20088;-53
2022/03/28 08:34:58;;;;;;;77.50;34.67;;;;;;;;;;6175602;23;20025;-52
2022/03/28 08:37:24;;;;;;;71.18;32.67;;;;;;;;;;6169726;23;20017;-50
2022/03/28 08:39:54;;;;;;;65.03;31.17;;;;;;;;;;6178506;23;20013;-48
2022/03/28 08:42:20;;;;;;;62.80;28.52;;;;;;;;;;6177842;23;20037;-50
2022/03/28 08:44:47;;;;;;;58.53;28.65;;;;;;;;;;6178099;23;20083;-53
2022/03/28 08:47:16;;;;;;;51.30;27.67;;;;;;;;;;6178115;23;20013;-54
2022/03/28 08:49:41;;;;;;;55.75;24.75;;;;;;;;;;6176677;23;20013;-52
2022/03/28 08:52:07;;;;;;;53.35;25.02;;;;;;;;;;6178657;23;20835;-53
2022/03/28 08:54:32;;;;;;;47.15;24.23;;;;;;;;;;6175418;23;20523;-52
2022/03/28 08:56:58;;;;;;;57.88;24.73;;;;;;;;;;6178435;23;20064;-54
2022/03/28 08:59:23;;;;;;;34.22;21.95;;;;;;;;;;6175126;23;20619;-50
2022/03/28 09:01:49;;;;;;;41.28;21.75;;;;;;;;;;6177104;23;20015;-51
2022/03/28 09:04:15;;;;;;;44.42;22.35;;;;;;;;;;6175378;23;20021;-52
2022/03/28 09:06:42;;;;;;;43.97;23.67;;;;;;;;;;6176870;23;20024;-52
2022/03/28 09:09:13;;;;;;;43.63;21.65;;;;;;;;;;6174857;23;20013;-51
2022/03/28 09:11:46;;;;;;;39.40;20.92;;;;;;;;;;6178702;23;20087;-48
2022/03/28 09:14:12;;;;;;;41.83;21.77;;;;;;;;;;6174842;23;20056;-52
2022/03/28 09:16:38;;;;;;;43.17;21.48;;;;;;;;;;6178802;23;20017;-51
2022/03/28 09:19:08;;;;;;;43.72;20.52;;;;;;;;;;6176905;23;20076;-52
2022/03/28 09:21:33;;;;;;;46.95;18.13;;;;;;;;;;6177927;23;20024;-51
2022/03/28 09:23:59;;;;;;;37.30;18.10;;;;;;;;;;6176405;23;20080;-53
2022/03/28 09:26:25;;;;;;;33.45;17.65;;;;;;;;;;6178174;23;20040;-52
2022/03/28 09:28:56;;;;;;;31.50;16.42;;;;;;;;;;6151470;23;20009;-55
2022/03/28 09:31:32;;;;;;;33.50;17.23;;;;;;;;;;6176825;23;20025;-52
2022/03/28 09:34:24;;;;;;;33.58;17.95;;;;;;;;;;6176487;23;20028;-55
2022/03/28 09:36:53;;;;;;;39.35;19.63;;;;;;;;;;6167486;23;20021;-52
2022/03/28 09:39:18;;;;;;;40.40;21.13;;;;;;;;;;6177043;23;20017;-52
2022/03/28 09:41:59;;;;;;;48.35;21.30;;;;;;;;;;6175809;23;20045;-53
2022/03/28 09:44:42;;;;;;;42.33;20.33;;;;;;;;;;6177865;23;20586;-54
2022/03/28 09:47:09;;;;;;;37.97;18.45;;;;;;;;;;6177027;23;20039;-49
2022/03/28 09:49:35;;;;;;;42.30;20.38;;;;;;;;;;6176829;23;20013;-50
2022/03/28 09:52:02;;;;;;;40.15;20.30;;;;;;;;;;6178446;23;20081;-55
2022/03/28 09:54:30;;;;;;;35.03;17.55;;;;;;;;;;6176164;23;20028;-48
2022/03/28 09:57:05;;;;;;;26.40;15.55;;;;;;;;;;6176180;23;20036;-52
2022/03/28 09:59:35;;;;;;;39.00;18.45;;;;;;;;;;6176266;23;20013;-53
2022/03/28 10:02:13;;;;;;;40.70;19.08;;;;;;;;;;6176882;23;20077;-55
2022/03/28 10:04:39;;;;;;;38.05;19.15;;;;;;;;;;6177071;23;20047;-53
2022/03/28 10:07:04;;;;;;;38.63;19.50;;;;;;;;;;6173070;23;20013;-52
2022/03/28 10:09:29;;;;;;;33.03;17.30;;;;;;;;;;6146511;23;20066;-51
2022/03/28 10:11:55;;;;;;;31.75;15.93;;;;;;;;;;6172519;23;20013;-52
2022/03/28 10:14:20;;;;;;;34.40;15.77;;;;;;;;;;6177505;23;20025;-53
2022/03/28 10:16:46;;;;;;;30.05;15.98;;;;;;;;;;6174049;23;20069;-50
2022/03/28 10:19:13;;;;;;;30.00;14.95;;;;;;;;;;6176333;23;20013;-51
2022/03/28 10:21:38;;;;;;;33.50;15.80;;;;;;;;;;6161823;23;20462;-52
2022/03/28 10:24:06;;;;;;;28.42;14.00;;;;;;;;;;6174344;23;20068;-51
2022/03/28 10:26:36;;;;;;;32.10;16.02;;;;;;;;;;6171386;23;20088;-52
2022/03/28 10:29:12;;;;;;;28.83;15.35;;;;;;;;;;6176495;23;20021;-53
2022/03/28 10:31:54;;;;;;;31.05;15.77;;;;;;;;;;6174798;23;20103;-52
2022/03/28 10:34:38;;;;;;;26.30;13.73;;;;;;;;;;6171313;23;20025;-51
2022/03/28 10:37:22;;;;;;;26.38;13.60;;;;;;;;;;6171174;23;20337;-51
2022/03/28 10:39:48;;;;;;;25.98;12.45;;;;;;;;;;6170913;23;20036;-53
2022/03/28 10:42:17;;;;;;;22.40;11.52;;;;;;;;;;6175252;23;20021;-51
2022/03/28 10:44:43;;;;;;;26.08;13.40;;;;;;;;;;6174565;23;20009;-54
2022/03/28 10:47:09;;;;;;;23.50;12.65;;;;;;;;;;6176853;23;20282;-54
2022/03/28 10:49:34;;;;;;;28.23;13.68;;;;;;;;;;6172039;23;20013;-49
2022/03/28 10:52:01;;;;;;;24.90;12.65;;;;;;;;;;6117083;23;20029;-52
2022/03/28 10:54:37;;;;;;;26.60;11.73;;;;;;;;;;6112408;23;20029;-52
2022/03/28 10:57:04;;;;;;;26.23;12.13;;;;;;;;;;6118149;23;20049;-54
2022/03/28 10:59:30;;;;;;;19.73;11.15;;;;;;;;;;6115494;23;20528;-52
2022/03/28 11:01:56;;;;;;;23.80;11.27;;;;;;;;;;6118914;23;20025;-52
2022/03/28 11:04:23;;;;;;;23.88;10.88;;;;;;;;;;6113965;23;20064;-54
2022/03/28 11:07:04;;;;;;;28.25;12.00;;;;;;;;;;6119232;23;20018;-54
2022/03/28 11:09:33;;;;;;;18.85;9.88;;;;;;;;;;6114552;23;20025;-53
2022/03/28 11:12:00;;;;;;;12.05;6.63;;;;;;;;;;6117761;23;20024;-55
2022/03/28 11:14:38;;;;;;;16.65;7.28;;;;;;;;;;6116733;23;20033;-54
2022/03/28 11:17:23;;;;;;;16.10;7.65;;;;;;;;;;6115784;23;20014;-53
2022/03/28 11:19:56;;;;;;;15.93;7.75;;;;;;;;;;6117856;23;20018;-52
2022/03/28 11:22:57;;;;;;;12.63;6.65;;;;;;;;;;6116441;23;20022;-51
2022/03/28 11:25:29;;;;;;;11.68;5.53;;;;;;;;;;6084372;23;20014;-55
2022/03/28 11:28:07;;;;;;;12.80;7.75;;;;;;;;;;6115716;23;20017;-53
2022/03/28 11:30:46;;;;;;;19.20;7.57;;;;;;;;;;6116539;23;20245;-51
2022/03/28 11:33:17;;;;;;;20.50;8.30;;;;;;;;;;6118216;23;20026;-53
2022/03/28 11:35:51;;;;;;;12.90;7.07;;;;;;;;;;6119648;23;20014;-53
2022/03/28 11:38:18;;;;;;;15.98;6.97;;;;;;;;;;6115813;23;20274;-54
2022/03/28 11:40:44;;;;;;;11.73;6.45;;;;;;;;;;6119703;23;20010;-51
2022/03/28 11:43:09;;;;;;;9.85;5.72;;;;;;;;;;6115554;23;20018;-54
2022/03/28 11:45:35;;;;;;;11.82;6.68;;;;;;;;;;6119377;23;20014;-53
2022/03/28 11:48:02;;;;;;;15.15;6.60;;;;;;;;;;6117401;23;20077;-54
2022/03/28 11:50:28;;;;;;;7.43;4.43;;;;;;;;;;6140617;23;20048;-52
2022/03/28 11:52:54;;;;;;;11.07;5.70;;;;;;;;;;6177179;23;20021;-54
2022/03/28 11:55:21;;;;;;;11.05;5.10;;;;;;;;;;6177538;23;20093;-54
2022/03/28 12:00:33;;;;;;;10.00;5.47;;;;;;;;;;6177090;23;20028;-55
2022/03/28 12:02:59;;;;;;;12.00;5.82;;;;;;;;;;6176367;23;20009;-54
2022/03/28 12:05:24;;;;;;;12.80;7.35;;;;;;;;;;6176960;23;20021;-52
2022/03/28 12:07:49;;;;;;;12.03;7.43;;;;;;;;;;6177730;23;20502;-53
2022/03/28 12:10:15;;;;;;;14.13;7.82;;;;;;;;;;6177513;23;20299;-53
2022/03/28 12:12:40;;;;;;;17.27;9.18;;;;;;;;;;6177038;23;20358;-55
2022/03/28 12:15:09;;;;;;;19.05;9.43;;;;;;;;;;6176480;23;20078;-51
2022/03/28 12:17:34;;;;;;;13.95;8.30;;;;;;;;;;6176229;23;20017;-53
2022/03/28 12:20:06;;;;;;;18.88;10.10;;;;;;;;;;6177635;23;20010;-52
2022/03/28 12:22:44;;;;;;;20.02;10.50;;;;;;;;;;6176643;23;20012;-49
2022/03/28 12:25:21;;;;;;;27.38;11.18;;;;;;;;;;6175941;23;20064;-51
2022/03/28 12:27:50;;;;;;;20.70;10.60;;;;;;;;;;6174826;23;20017;-55
2022/03/28 12:30:15;;;;;;;25.02;11.88;;;;;;;;;;6175795;23;20152;-50
2022/03/28 12:32:43;;;;;;;23.33;12.63;;;;;;;;;;6174742;23;20016;-53
2022/03/28 12:35:09;;;;;;;21.65;11.98;;;;;;;;;;6177167;23;20021;-52
2022/03/28 12:37:35;;;;;;;25.58;14.05;;;;;;;;;;6170640;23;20020;-52
2022/03/28 12:40:00;;;;;;;23.40;13.38;;;;;;;;;;6162193;23;20068;-55
2022/03/28 12:42:26;;;;;;;21.95;12.65;;;;;;;;;;6165474;23;20063;-52
2022/03/28 12:44:53;;;;;;;22.65;13.80;;;;;;;;;;6174385;23;20336;-51
2022/03/28 12:47:19;;;;;;;27.05;12.55;;;;;;;;;;6172318;23;20051;-52
2022/03/28 12:49:45;;;;;;;22.55;12.82;;;;;;;;;;6177797;23;20025;-55
2022/03/28 12:52:11;;;;;;;26.92;14.18;;;;;;;;;;6173956;23;20029;-53
2022/03/28 12:54:36;;;;;;;26.70;13.70;;;;;;;;;;6176305;23;20040;-50
2022/03/28 12:57:02;;;;;;;23.85;13.90;;;;;;;;;;6178845;23;20738;-53
2022/03/28 12:59:32;;;;;;;26.30;13.55;;;;;;;;;;6175537;23;20685;-55
2022/03/28 13:02:09;;;;;;;26.13;13.32;;;;;;;;;;6178680;23;20048;-52
2022/03/28 13:04:41;;;;;;;27.70;13.10;;;;;;;;;;6176552;23;20017;-55
2022/03/28 13:07:06;;;;;;;23.92;12.30;;;;;;;;;;6179123;23;20012;-55
2022/03/28 13:09:32;;;;;;;26.40;12.32;;;;;;;;;;6176570;23;20028;-53
2022/03/28 13:12:08;;;;;;;21.05;11.30;;;;;;;;;;6178672;23;20073;-53
2022/03/28 13:14:33;;;;;;;26.92;12.77;;;;;;;;;;6176262;23;20028;-55
2022/03/28 13:17:10;;;;;;;22.23;11.50;;;;;;;;;;6173084;23;20429;-55
2022/03/28 13:19:36;;;;;;;26.55;13.05;;;;;;;;;;6174861;23;20043;-51
2022/03/28 13:22:04;;;;;;;25.05;11.93;;;;;;;;;;6177503;23;20017;-53
2022/03/28 13:24:31;;;;;;;19.63;10.13;;;;;;;;;;6175588;23;20016;-51
2022/03/28 13:29:48;;;;;;;20.23;10.48;;;;;;;;;;6118565;23;20024;-55
2022/03/28 13:32:13;;;;;;;19.50;10.73;;;;;;;;;;6170152;23;20013;-56
2022/03/28 13:34:39;;;;;;;21.90;10.43;;;;;;;;;;6172948;23;20124;-53
2022/03/28 13:37:05;;;;;;;30.60;12.45;;;;;;;;;;6174256;23;20017;-55
2022/03/28 13:39:31;;;;;;;22.95;9.93;;;;;;;;;;6173875;23;20040;-55
2022/03/28 13:41:57;;;;;;;24.90;10.18;;;;;;;;;;6135734;23;20024;-53
2022/03/28 13:44:22;;;;;;;19.48;10.27;;;;;;;;;;6165971;23;20373;-54
2022/03/28 13:46:50;;;;;;;16.55;9.73;;;;;;;;;;6167319;23;20100;-55
2022/03/28 13:49:16;;;;;;;18.17;10.75;;;;;;;;;;6167475;23;20399;-53
2022/03/28 13:51:41;;;;;;;22.38;9.82;;;;;;;;;;6169502;23;20214;-53
2022/03/28 13:54:06;;;;;;;19.70;10.82;;;;;;;;;;6177318;23;20033;-55
2022/03/28 13:56:32;;;;;;;20.73;9.73;;;;;;;;;;6175268;23;20104;-53
2022/03/28 13:58:58;;;;;;;19.25;9.82;;;;;;;;;;6177072;23;20040;-56
2022/03/28 14:01:27;;;;;;;19.70;10.07;;;;;;;;;;6168922;23;20021;-55
2022/03/28 14:03:53;;;;;;;23.65;11.07;;;;;;;;;;6169613;23;20024;-56
2022/03/28 14:06:19;;;;;;;23.95;10.98;;;;;;;;;;6171220;23;20262;-53
2022/03/28 14:08:44;;;;;;;19.40;9.75;;;;;;;;;;6175125;23;20013;-56
2022/03/28 14:11:12;;;;;;;21.10;10.73;;;;;;;;;;6174045;23;20084;-53
2022/03/28 14:13:38;;;;;;;18.55;9.70;;;;;;;;;;6175683;23;20040;-57
2022/03/28 14:16:04;;;;;;;24.38;11.43;;;;;;;;;;6169328;23;20072;-54
2022/03/28 14:18:29;;;;;;;18.85;11.57;;;;;;;;;;6174274;23;20013;-54
2022/03/28 14:20:55;;;;;;;22.92;10.52;;;;;;;;;;6172447;23;20017;-55
2022/03/28 14:23:20;;;;;;;18.90;10.30;;;;;;;;;;6172195;23;20013;-56
2022/03/28 14:25:46;;;;;;;20.17;10.00;;;;;;;;;;6173985;23;20024;-56